EZY52LM EGJJ-EGKK
Flight info
| Callsign | EZY52LM |
|---|---|
| Flight time | N/A |
| Altitude | 23000 |
| Route | ORIST L982 VASUX |
| Aircraft | A319/M-SDE3FGHIRWY/LB1 |
Departure
| Time | 2026-05-06 15:47 |
|---|---|
| Airport | Jersey Airport (EGJJ) |
Arrival
| Time | N/A |
|---|---|
| Airport | London Gatwick Airport (EGKK) |
| Time | Latitude | Longitude | Altitude | Speed | Heading |
|---|---|---|---|---|---|
| 2026-05-06 15:37 | 49.20493 | -2.19732 | 285 ft | 0 kts | 352° |
| 2026-05-06 15:41 | 49.20492 | -2.19732 | 281 ft | 1 kts | 352° |
| 2026-05-06 15:41 | 49.20476 | -2.19729 | 281 ft | 3 kts | 356° |
| 2026-05-06 15:42 | 49.20456 | -2.19727 | 281 ft | 3 kts | 345° |
| 2026-05-06 15:42 | 49.20445 | -2.19722 | 282 ft | 2 kts | 281° |
| 2026-05-06 15:42 | 49.20444 | -2.19718 | 283 ft | 0 kts | 264° |
| 2026-05-06 15:44 | 49.20444 | -2.19722 | 283 ft | 2 kts | 264° |
| 2026-05-06 15:44 | 49.20439 | -2.19772 | 281 ft | 7 kts | 262° |
| 2026-05-06 15:44 | 49.20434 | -2.19865 | 280 ft | 9 kts | 271° |
| 2026-05-06 15:44 | 49.20482 | -2.19919 | 280 ft | 11 kts | 355° |
| 2026-05-06 15:45 | 49.20519 | -2.20002 | 286 ft | 11 kts | 278° |
| 2026-05-06 15:45 | 49.20542 | -2.20113 | 280 ft | 11 kts | 288° |
| 2026-05-06 15:45 | 49.20566 | -2.20229 | 284 ft | 12 kts | 287° |
| 2026-05-06 15:45 | 49.20589 | -2.20349 | 280 ft | 12 kts | 286° |
| 2026-05-06 15:46 | 49.20613 | -2.20475 | 280 ft | 13 kts | 285° |
| 2026-05-06 15:46 | 49.20627 | -2.20607 | 280 ft | 13 kts | 273° |
| 2026-05-06 15:46 | 49.20671 | -2.20701 | 279 ft | 10 kts | 353° |
| 2026-05-06 15:46 | 49.20704 | -2.20669 | 279 ft | 6 kts | 82° |
| 2026-05-06 15:47 | 49.20718 | -2.20504 | 279 ft | 44 kts | 83° |
| 2026-05-06 15:47 | 49.20790 | -2.19646 | 282 ft | 115 kts | 83° |
| 2026-05-06 15:47 | 49.20905 | -2.18225 | 621 ft | 139 kts | 82° |
| 2026-05-06 15:47 | 49.21023 | -2.16768 | 1335 ft | 138 kts | 81° |
| 2026-05-06 15:48 | 49.21145 | -2.15292 | 1927 ft | 140 kts | 82° |
| 2026-05-06 15:48 | 49.21268 | -2.13819 | 2401 ft | 145 kts | 81° |
| 2026-05-06 15:48 | 49.21406 | -2.12173 | 2612 ft | 170 kts | 81° |
| 2026-05-06 15:48 | 49.21572 | -2.10206 | 2648 ft | 202 kts | 82° |
| 2026-05-06 15:49 | 49.21749 | -2.08013 | 3183 ft | 212 kts | 82° |
| 2026-05-06 15:49 | 49.22040 | -2.05786 | 3970 ft | 218 kts | 63° |
| 2026-05-06 15:49 | 49.23099 | -2.04167 | 4704 ft | 224 kts | 22° |
| 2026-05-06 15:49 | 49.24606 | -2.03851 | 5491 ft | 224 kts | 357° |
| 2026-05-06 15:50 | 49.26168 | -2.03920 | 6366 ft | 226 kts | 355° |
| 2026-05-06 15:50 | 49.27804 | -2.04004 | 6876 ft | 247 kts | 357° |
| 2026-05-06 15:50 | 49.29603 | -2.04053 | 7365 ft | 269 kts | 358° |
| 2026-05-06 15:50 | 49.31507 | -2.04052 | 8171 ft | 277 kts | 359° |
| 2026-05-06 15:51 | 49.33451 | -2.04007 | 9091 ft | 281 kts | 359° |
| 2026-05-06 15:51 | 49.35424 | -2.03931 | 10011 ft | 286 kts | 360° |
| 2026-05-06 15:51 | 49.37425 | -2.03836 | 10870 ft | 290 kts | 0° |
| 2026-05-06 15:51 | 49.39450 | -2.03730 | 11733 ft | 293 kts | 0° |
| 2026-05-06 15:52 | 49.41500 | -2.03617 | 12590 ft | 297 kts | 0° |
| 2026-05-06 15:52 | 49.43577 | -2.03503 | 13437 ft | 300 kts | 0° |
| 2026-05-06 15:52 | 49.45680 | -2.03389 | 14218 ft | 304 kts | 0° |
| 2026-05-06 15:52 | 49.47810 | -2.03273 | 14952 ft | 308 kts | 0° |
| 2026-05-06 15:53 | 49.49963 | -2.03161 | 15680 ft | 312 kts | 0° |
| 2026-05-06 15:53 | 49.52145 | -2.03050 | 16414 ft | 316 kts | 0° |
| 2026-05-06 15:53 | 49.54355 | -2.02939 | 17145 ft | 320 kts | 360° |
| 2026-05-06 15:53 | 49.56593 | -2.02822 | 17874 ft | 323 kts | 360° |
| 2026-05-06 15:54 | 49.58855 | -2.02699 | 18557 ft | 327 kts | 360° |
| 2026-05-06 15:54 | 49.61144 | -2.02577 | 19192 ft | 331 kts | 360° |
| 2026-05-06 15:54 | 49.63456 | -2.02457 | 19839 ft | 334 kts | 360° |
| 2026-05-06 15:54 | 49.65788 | -2.02335 | 20484 ft | 337 kts | 360° |
| 2026-05-06 15:55 | 49.68139 | -2.02215 | 21124 ft | 340 kts | 360° |
| 2026-05-06 15:55 | 49.70509 | -2.02092 | 21763 ft | 343 kts | 0° |
| 2026-05-06 15:55 | 49.72901 | -2.01962 | 22405 ft | 346 kts | 0° |
| 2026-05-06 15:55 | 49.75318 | -2.01828 | 22888 ft | 350 kts | 0° |
| 2026-05-06 15:56 | 49.77750 | -2.01527 | 22996 ft | 357 kts | 8° |
| 2026-05-06 15:56 | 49.80131 | -2.00479 | 23002 ft | 364 kts | 20° |
| 2026-05-06 15:56 | 49.82414 | -1.98723 | 23002 ft | 367 kts | 26° |
| 2026-05-06 15:56 | 49.84669 | -1.96867 | 23001 ft | 368 kts | 26° |
| 2026-05-06 15:57 | 49.86935 | -1.95025 | 23001 ft | 368 kts | 26° |
| 2026-05-06 15:57 | 49.89200 | -1.93201 | 23000 ft | 368 kts | 26° |
| 2026-05-06 15:57 | 49.91471 | -1.91377 | 23000 ft | 368 kts | 26° |
| 2026-05-06 15:57 | 49.93743 | -1.89552 | 22999 ft | 367 kts | 26° |
| 2026-05-06 15:58 | 49.96015 | -1.87725 | 23006 ft | 368 kts | 26° |
| 2026-05-06 15:58 | 49.98285 | -1.85895 | 23000 ft | 368 kts | 26° |
| 2026-05-06 15:58 | 50.00558 | -1.84065 | 23001 ft | 368 kts | 26° |
| 2026-05-06 15:58 | 50.02835 | -1.82250 | 23002 ft | 368 kts | 25° |
| 2026-05-06 15:59 | 50.05115 | -1.80448 | 23003 ft | 368 kts | 25° |
| 2026-05-06 15:59 | 50.07391 | -1.78651 | 23000 ft | 368 kts | 25° |
| 2026-05-06 15:59 | 50.09672 | -1.76848 | 23004 ft | 368 kts | 25° |
| 2026-05-06 15:59 | 50.11936 | -1.74990 | 22998 ft | 368 kts | 30° |
| 2026-05-06 16:00 | 50.13983 | -1.72653 | 22995 ft | 370 kts | 38° |
| 2026-05-06 16:00 | 50.15987 | -1.70052 | 22995 ft | 370 kts | 38° |
| 2026-05-06 16:00 | 50.17934 | -1.67524 | 22996 ft | 370 kts | 38° |
| 2026-05-06 16:00 | 50.19911 | -1.64959 | 23005 ft | 369 kts | 38° |
| 2026-05-06 16:01 | 50.21914 | -1.62361 | 22998 ft | 369 kts | 38° |
| 2026-05-06 16:01 | 50.23863 | -1.59835 | 22995 ft | 369 kts | 38° |
| 2026-05-06 16:01 | 50.25840 | -1.57267 | 22990 ft | 369 kts | 38° |
| 2026-05-06 16:01 | 50.27818 | -1.54694 | 22984 ft | 369 kts | 38° |
| 2026-05-06 16:02 | 50.29779 | -1.52148 | 22716 ft | 362 kts | 38° |
| 2026-05-06 16:02 | 50.31699 | -1.49655 | 22446 ft | 357 kts | 38° |
| 2026-05-06 16:02 | 50.33606 | -1.47183 | 22167 ft | 355 kts | 38° |
| 2026-05-06 16:02 | 50.35500 | -1.44723 | 21898 ft | 353 kts | 38° |
| 2026-05-06 16:03 | 50.37389 | -1.42268 | 21624 ft | 352 kts | 38° |
| 2026-05-06 16:03 | 50.39269 | -1.39827 | 21369 ft | 350 kts | 38° |
| 2026-05-06 16:03 | 50.41143 | -1.37391 | 21106 ft | 349 kts | 38° |
| 2026-05-06 16:03 | 50.43003 | -1.34966 | 20858 ft | 348 kts | 38° |
| 2026-05-06 16:04 | 50.44859 | -1.32539 | 20602 ft | 347 kts | 38° |
| 2026-05-06 16:04 | 50.46709 | -1.30118 | 20347 ft | 345 kts | 38° |
| 2026-05-06 16:04 | 50.48550 | -1.27709 | 20093 ft | 344 kts | 38° |
| 2026-05-06 16:04 | 50.50383 | -1.25307 | 19844 ft | 342 kts | 38° |
| 2026-05-06 16:05 | 50.52204 | -1.22921 | 19594 ft | 341 kts | 38° |
| 2026-05-06 16:05 | 50.54025 | -1.20530 | 19347 ft | 340 kts | 38° |
| 2026-05-06 16:05 | 50.55826 | -1.18165 | 19102 ft | 335 kts | 38° |
| 2026-05-06 16:05 | 50.57611 | -1.15821 | 18732 ft | 334 kts | 38° |
| 2026-05-06 16:06 | 50.59389 | -1.13481 | 18353 ft | 333 kts | 38° |
| 2026-05-06 16:06 | 50.61165 | -1.11141 | 17922 ft | 332 kts | 38° |
| 2026-05-06 16:06 | 50.62932 | -1.08808 | 17537 ft | 330 kts | 38° |
| 2026-05-06 16:06 | 50.64687 | -1.06487 | 17165 ft | 328 kts | 38° |
| 2026-05-06 16:07 | 50.66346 | -1.04029 | 16787 ft | 328 kts | 47° |
| 2026-05-06 16:07 | 50.67794 | -1.01250 | 16412 ft | 327 kts | 49° |
| 2026-05-06 16:07 | 50.69229 | -0.98478 | 16041 ft | 326 kts | 49° |
| 2026-05-06 16:07 | 50.70663 | -0.95710 | 15676 ft | 325 kts | 49° |
| 2026-05-06 16:08 | 50.72088 | -0.92958 | 15310 ft | 324 kts | 49° |
| 2026-05-06 16:08 | 50.73510 | -0.90207 | 14947 ft | 323 kts | 48° |
| 2026-05-06 16:08 | 50.74927 | -0.87467 | 14583 ft | 322 kts | 49° |
| 2026-05-06 16:08 | 50.76340 | -0.84734 | 14220 ft | 321 kts | 49° |
| 2026-05-06 16:09 | 50.77747 | -0.82013 | 13869 ft | 320 kts | 49° |
| 2026-05-06 16:09 | 50.79152 | -0.79295 | 13465 ft | 319 kts | 49° |
| 2026-05-06 16:09 | 50.80467 | -0.76480 | 13094 ft | 318 kts | 58° |
| 2026-05-06 16:09 | 50.81317 | -0.73287 | 12960 ft | 311 kts | 72° |
| 2026-05-06 16:10 | 50.81741 | -0.69948 | 12977 ft | 309 kts | 78° |
| 2026-05-06 16:10 | 50.82131 | -0.66603 | 12977 ft | 309 kts | 78° |
| 2026-05-06 16:10 | 50.82525 | -0.63258 | 12978 ft | 309 kts | 77° |
| 2026-05-06 16:10 | 50.82919 | -0.59918 | 12976 ft | 309 kts | 77° |
| 2026-05-06 16:11 | 50.83312 | -0.56578 | 12972 ft | 309 kts | 77° |
| 2026-05-06 16:11 | 50.83702 | -0.53233 | 12974 ft | 309 kts | 78° |
| 2026-05-06 16:11 | 50.84088 | -0.49886 | 12976 ft | 309 kts | 78° |
| 2026-05-06 16:11 | 50.84473 | -0.46539 | 12974 ft | 309 kts | 77° |
| 2026-05-06 16:12 | 50.84854 | -0.43232 | 12974 ft | 310 kts | 78° |
| 2026-05-06 16:12 | 50.85240 | -0.39885 | 12933 ft | 307 kts | 78° |
| 2026-05-06 16:12 | 50.85622 | -0.36578 | 12611 ft | 307 kts | 78° |
| 2026-05-06 16:12 | 50.86003 | -0.33259 | 12349 ft | 306 kts | 77° |
| 2026-05-06 16:13 | 50.86377 | -0.29957 | 12090 ft | 303 kts | 78° |
| 2026-05-06 16:13 | 50.86748 | -0.26678 | 11832 ft | 303 kts | 78° |
| 2026-05-06 16:13 | 50.87121 | -0.23402 | 11578 ft | 302 kts | 77° |
| 2026-05-06 16:13 | 50.87661 | -0.20244 | 11329 ft | 293 kts | 60° |
| 2026-05-06 16:14 | 50.88890 | -0.17841 | 11166 ft | 271 kts | 33° |
| 2026-05-06 16:14 | 50.90536 | -0.16721 | 10935 ft | 251 kts | 5° |
| 2026-05-06 16:14 | 50.92229 | -0.17038 | 10668 ft | 245 kts | 337° |
| 2026-05-06 16:14 | 50.93761 | -0.18171 | 10368 ft | 243 kts | 332° |
| 2026-05-06 16:15 | 50.95258 | -0.19414 | 10054 ft | 243 kts | 331° |
| 2026-05-06 16:15 | 50.96742 | -0.20669 | 9761 ft | 240 kts | 331° |
| 2026-05-06 16:15 | 50.98210 | -0.21919 | 9415 ft | 239 kts | 331° |
| 2026-05-06 16:15 | 50.99667 | -0.23167 | 9088 ft | 238 kts | 331° |
| 2026-05-06 16:16 | 51.01065 | -0.24562 | 8736 ft | 237 kts | 315° |
| 2026-05-06 16:16 | 51.01893 | -0.26783 | 8394 ft | 238 kts | 284° |
| 2026-05-06 16:16 | 51.02043 | -0.29403 | 8037 ft | 239 kts | 272° |
| 2026-05-06 16:16 | 51.02038 | -0.32029 | 7714 ft | 238 kts | 271° |
| 2026-05-06 16:17 | 51.02008 | -0.34643 | 7399 ft | 236 kts | 271° |
| 2026-05-06 16:17 | 51.01969 | -0.37241 | 7084 ft | 235 kts | 271° |
| 2026-05-06 16:17 | 51.01927 | -0.39831 | 6761 ft | 234 kts | 271° |
| 2026-05-06 16:17 | 51.01889 | -0.42398 | 6298 ft | 231 kts | 271° |
| 2026-05-06 16:18 | 51.01844 | -0.44946 | 5830 ft | 232 kts | 271° |
| 2026-05-06 16:18 | 51.01800 | -0.47505 | 5478 ft | 231 kts | 274° |
| 2026-05-06 16:18 | 51.02176 | -0.49912 | 5145 ft | 224 kts | 303° |
| 2026-05-06 16:18 | 51.03262 | -0.51603 | 4812 ft | 219 kts | 329° |
| 2026-05-06 16:19 | 51.04164 | -0.52323 | 4570 ft | 219 kts | 338° |
| 2026-05-06 16:19 | 51.05587 | -0.53116 | 4279 ft | 213 kts | 345° |
| 2026-05-06 16:19 | 51.06997 | -0.53586 | 4029 ft | 202 kts | 359° |
| 2026-05-06 16:19 | 51.08330 | -0.53253 | 3893 ft | 188 kts | 20° |
| 2026-05-06 16:20 | 51.09429 | -0.52241 | 3748 ft | 181 kts | 38° |
| 2026-05-06 16:20 | 51.10226 | -0.50714 | 3597 ft | 181 kts | 57° |
| 2026-05-06 16:20 | 51.10655 | -0.48817 | 3445 ft | 185 kts | 75° |
| 2026-05-06 16:20 | 51.10935 | -0.46818 | 3291 ft | 185 kts | 74° |
| 2026-05-06 16:21 | 51.11214 | -0.44838 | 3173 ft | 182 kts | 75° |
| 2026-05-06 16:21 | 51.11494 | -0.42850 | 3033 ft | 184 kts | 74° |
| 2026-05-06 16:21 | 51.11770 | -0.40887 | 2820 ft | 180 kts | 74° |
| 2026-05-06 16:21 | 51.12041 | -0.38951 | 2588 ft | 178 kts | 74° |
| 2026-05-06 16:22 | 51.12307 | -0.37048 | 2348 ft | 172 kts | 74° |
| 2026-05-06 16:22 | 51.12561 | -0.35232 | 2121 ft | 165 kts | 73° |
| 2026-05-06 16:22 | 51.12797 | -0.33529 | 1906 ft | 148 kts | 73° |
| 2026-05-06 16:22 | 51.13014 | -0.31980 | 1713 ft | 141 kts | 74° |
| 2026-05-06 16:23 | 51.13225 | -0.30475 | 1523 ft | 138 kts | 73° |
| 2026-05-06 16:23 | 51.13431 | -0.28998 | 1334 ft | 136 kts | 73° |
| 2026-05-06 16:23 | 51.13639 | -0.27531 | 1151 ft | 134 kts | 75° |
| 2026-05-06 16:23 | 51.13841 | -0.26083 | 965 ft | 135 kts | 73° |
| 2026-05-06 16:24 | 51.14040 | -0.24653 | 810 ft | 131 kts | 75° |
| 2026-05-06 16:24 | 51.14238 | -0.23232 | 596 ft | 131 kts | 74° |
| 2026-05-06 16:24 | 51.14439 | -0.21820 | 1180 ft | 132 kts | 73° |
| 2026-05-06 16:24 | 51.14623 | -0.20318 | 1844 ft | 151 kts | 85° |
| 2026-05-06 16:25 | 51.14153 | -0.18656 | 2198 ft | 184 kts | 134° |
| 2026-05-06 16:25 | 51.12936 | -0.17719 | 2546 ft | 212 kts | 170° |
| 2026-05-06 16:25 | 51.11393 | -0.17599 | 3018 ft | 230 kts | 180° |
| 2026-05-06 16:25 | 51.09786 | -0.17628 | 3012 ft | 229 kts | 181° |
| 2026-05-06 16:26 | 51.08195 | -0.17690 | 3009 ft | 230 kts | 181° |
| 2026-05-06 16:26 | 51.06600 | -0.17747 | 3008 ft | 230 kts | 181° |
| 2026-05-06 16:26 | 51.05010 | -0.17797 | 3008 ft | 228 kts | 181° |
| 2026-05-06 16:26 | 51.03430 | -0.17848 | 3007 ft | 227 kts | 181° |
| 2026-05-06 16:27 | 51.01854 | -0.18016 | 2994 ft | 227 kts | 196° |
| 2026-05-06 16:27 | 51.00523 | -0.19265 | 3000 ft | 222 kts | 231° |
| 2026-05-06 16:27 | 50.99879 | -0.21415 | 3004 ft | 216 kts | 264° |
| 2026-05-06 16:27 | 50.99735 | -0.23788 | 3006 ft | 216 kts | 271° |
| 2026-05-06 16:28 | 50.99662 | -0.26161 | 3001 ft | 215 kts | 271° |
| 2026-05-06 16:28 | 50.99606 | -0.28526 | 2980 ft | 215 kts | 270° |
| 2026-05-06 16:28 | 50.99559 | -0.30899 | 2981 ft | 215 kts | 271° |
| 2026-05-06 16:28 | 50.99501 | -0.33261 | 2981 ft | 215 kts | 271° |
| 2026-05-06 16:29 | 50.99446 | -0.35634 | 2982 ft | 216 kts | 271° |
| 2026-05-06 16:29 | 50.99385 | -0.38012 | 2982 ft | 215 kts | 271° |
| 2026-05-06 16:29 | 50.99334 | -0.40396 | 2982 ft | 216 kts | 273° |
| 2026-05-06 16:29 | 50.99708 | -0.42641 | 2979 ft | 210 kts | 306° |
| 2026-05-06 16:30 | 51.00808 | -0.44067 | 2980 ft | 205 kts | 341° |
| 2026-05-06 16:30 | 51.01714 | -0.44479 | 2983 ft | 204 kts | 349° |
| 2026-05-06 16:30 | 51.03568 | -0.45064 | 2999 ft | 204 kts | 351° |
| 2026-05-06 16:30 | 51.04971 | -0.45308 | 2991 ft | 204 kts | 7° |
| 2026-05-06 16:31 | 51.06333 | -0.44785 | 3006 ft | 197 kts | 15° |
| 2026-05-06 16:31 | 51.07614 | -0.44191 | 3001 ft | 186 kts | 15° |
| 2026-05-06 16:31 | 51.08842 | -0.43597 | 2997 ft | 185 kts | 17° |
| 2026-05-06 16:31 | 51.10068 | -0.42979 | 2988 ft | 186 kts | 22° |
| 2026-05-06 16:32 | 51.11118 | -0.41844 | 2929 ft | 179 kts | 43° |
| 2026-05-06 16:32 | 51.11812 | -0.40206 | 2723 ft | 180 kts | 64° |
| 2026-05-06 16:32 | 51.12135 | -0.38268 | 2494 ft | 180 kts | 75° |
| 2026-05-06 16:32 | 51.12400 | -0.36373 | 2263 ft | 170 kts | 75° |
| 2026-05-06 16:33 | 51.12648 | -0.34597 | 2046 ft | 156 kts | 73° |
| 2026-05-06 16:33 | 51.12871 | -0.33002 | 1840 ft | 142 kts | 73° |
| 2026-05-06 16:33 | 51.13084 | -0.31484 | 1652 ft | 139 kts | 73° |
| 2026-05-06 16:34 | 51.13497 | -0.28530 | 1276 ft | 137 kts | 73° |
| 2026-05-06 16:34 | 51.13695 | -0.27063 | 1090 ft | 134 kts | 75° |
| 2026-05-06 16:34 | 51.13895 | -0.25608 | 898 ft | 133 kts | 72° |
| 2026-05-06 16:34 | 51.14093 | -0.24187 | 665 ft | 132 kts | 73° |
| 2026-05-06 16:35 | 51.14300 | -0.22757 | 494 ft | 133 kts | 73° |
| 2026-05-06 16:35 | 51.14498 | -0.21324 | 319 ft | 134 kts | 74° |
| 2026-05-06 16:35 | 51.14699 | -0.19885 | 221 ft | 128 kts | 73° |
| 2026-05-06 16:35 | 51.14872 | -0.18646 | 218 ft | 112 kts | 77° |
| 2026-05-06 16:36 | 51.15067 | -0.17252 | 637 ft | 135 kts | 76° |
| 2026-05-06 16:36 | 51.15283 | -0.15761 | 1432 ft | 142 kts | 76° |
| 2026-05-06 16:36 | 51.15515 | -0.14144 | 2020 ft | 159 kts | 75° |
| 2026-05-06 16:36 | 51.16049 | -0.12494 | 2345 ft | 181 kts | 41° |
| 2026-05-06 16:37 | 51.17092 | -0.11181 | 2859 ft | 200 kts | 34° |
| 2026-05-06 16:37 | 51.18266 | -0.09896 | 2965 ft | 209 kts | 32° |
| 2026-05-06 16:37 | 51.19563 | -0.08554 | 2986 ft | 236 kts | 31° |
| 2026-05-06 16:37 | 51.21009 | -0.07076 | 2980 ft | 247 kts | 31° |
| 2026-05-06 16:38 | 51.22451 | -0.05583 | 3644 ft | 251 kts | 32° |
| 2026-05-06 16:38 | 51.23924 | -0.04069 | 4793 ft | 253 kts | 31° |
| 2026-05-06 16:38 | 51.25417 | -0.02527 | 5844 ft | 258 kts | 31° |
| 2026-05-06 16:38 | 51.26928 | -0.00924 | 6688 ft | 263 kts | 31° |
| 2026-05-06 16:39 | 51.28471 | 0.00694 | 7595 ft | 268 kts | 31° |
| 2026-05-06 16:39 | 51.30048 | 0.02319 | 8559 ft | 273 kts | 31° |
| 2026-05-06 16:39 | 51.31650 | 0.03992 | 9497 ft | 279 kts | 31° |
| 2026-05-06 16:39 | 51.33243 | 0.05810 | 9888 ft | 284 kts | 41° |
| 2026-05-06 16:40 | 51.34447 | 0.08346 | 9986 ft | 289 kts | 55° |
| 2026-05-06 16:40 | 51.35500 | 0.11090 | 10000 ft | 290 kts | 56° |
| 2026-05-06 16:40 | 51.36533 | 0.13855 | 10002 ft | 290 kts | 57° |
| 2026-05-06 16:40 | 51.37511 | 0.16683 | 10000 ft | 290 kts | 59° |
| 2026-05-06 16:41 | 51.38459 | 0.19542 | 10001 ft | 290 kts | 60° |
| 2026-05-06 16:41 | 51.39393 | 0.22407 | 9999 ft | 290 kts | 60° |
| 2026-05-06 16:41 | 51.40327 | 0.25274 | 9974 ft | 289 kts | 59° |
| 2026-05-06 16:41 | 51.41382 | 0.27954 | 9416 ft | 281 kts | 44° |
| 2026-05-06 16:42 | 51.42974 | 0.29639 | 8798 ft | 272 kts | 18° |
| 2026-05-06 16:42 | 51.44784 | 0.30467 | 8173 ft | 269 kts | 12° |
| 2026-05-06 16:42 | 51.46596 | 0.31143 | 7536 ft | 267 kts | 11° |
| 2026-05-06 16:42 | 51.48409 | 0.31781 | 6922 ft | 265 kts | 12° |
| 2026-05-06 16:43 | 51.50203 | 0.32391 | 6344 ft | 262 kts | 12° |
| 2026-05-06 16:43 | 51.51975 | 0.33027 | 5702 ft | 260 kts | 18° |
| 2026-05-06 16:43 | 51.53483 | 0.34556 | 5067 ft | 258 kts | 47° |
| 2026-05-06 16:43 | 51.54318 | 0.37073 | 4453 ft | 258 kts | 76° |
| 2026-05-06 16:44 | 51.54276 | 0.39929 | 3949 ft | 259 kts | 102° |
| 2026-05-06 16:44 | 51.53771 | 0.42687 | 3590 ft | 253 kts | 106° |
| 2026-05-06 16:44 | 51.53237 | 0.45334 | 3223 ft | 244 kts | 105° |
| 2026-05-06 16:44 | 51.52700 | 0.47860 | 2900 ft | 233 kts | 105° |
| 2026-05-06 16:45 | 51.52173 | 0.50241 | 2709 ft | 220 kts | 107° |
| 2026-05-06 16:45 | 51.51669 | 0.52497 | 2506 ft | 210 kts | 107° |
| 2026-05-06 16:45 | 51.51387 | 0.54667 | 2372 ft | 189 kts | 88° |
| 2026-05-06 16:45 | 51.51567 | 0.56671 | 2130 ft | 173 kts | 66° |
| 2026-05-06 16:46 | 51.52082 | 0.58324 | 1883 ft | 159 kts | 56° |
| 2026-05-06 16:46 | 51.52676 | 0.59685 | 1647 ft | 142 kts | 50° |
| 2026-05-06 16:46 | 51.53254 | 0.60898 | 1419 ft | 133 kts | 47° |
| 2026-05-06 16:46 | 51.53813 | 0.62074 | 1178 ft | 130 kts | 49° |
| 2026-05-06 16:47 | 51.54324 | 0.63290 | 937 ft | 132 kts | 55° |
| 2026-05-06 16:47 | 51.54859 | 0.64477 | 700 ft | 132 kts | 53° |
| 2026-05-06 16:47 | 51.55388 | 0.65666 | 524 ft | 130 kts | 54° |
| 2026-05-06 16:47 | 51.55908 | 0.66826 | 349 ft | 130 kts | 53° |
| 2026-05-06 16:48 | 51.56443 | 0.68003 | 145 ft | 130 kts | 53° |
| 2026-05-06 16:48 | 51.56952 | 0.69137 | 52 ft | 114 kts | 54° |
| 2026-05-06 16:48 | 51.57321 | 0.69953 | 50 ft | 64 kts | 54° |
| 2026-05-06 16:48 | 51.57487 | 0.70321 | 45 ft | 20 kts | 55° |
| 2026-05-06 16:49 | 51.57528 | 0.70462 | 42 ft | 13 kts | 117° |
| 2026-05-06 16:49 | 51.57439 | 0.70466 | 43 ft | 14 kts | 191° |
| 2026-05-06 16:49 | 51.57347 | 0.70419 | 43 ft | 14 kts | 221° |
| 2026-05-06 16:49 | 51.57286 | 0.70290 | 45 ft | 15 kts | 236° |
| 2026-05-06 16:50 | 51.57222 | 0.70147 | 47 ft | 17 kts | 234° |
| 2026-05-06 16:50 | 51.57140 | 0.69987 | 48 ft | 19 kts | 201° |
| 2026-05-06 16:50 | 51.57055 | 0.70063 | 48 ft | 17 kts | 146° |
| 2026-05-06 16:50 | 51.56980 | 0.70149 | 48 ft | 22 kts | 145° |
| 2026-05-06 16:51 | 51.56927 | 0.70285 | 48 ft | 0 kts | 94° |